Time;durP1;ratioP1;P1;durP2;ratioP2;P2;SDS_P1;SDS_P2;PMS_P1;PMS_P2;Temp;Humidity;BMP_temperature;BMP_pressure;BME280_temperature;BME280_humidity;BME280_pressure;Samples;Min_cycle;Max_cycle;Signal;HPM_P1;HPM_P2
2020/12/18 00:00:37;;;;;;;;;;;;;;;1.25;100.00;93737.34;1066686;55;20661;-83
2020/12/18 00:01:37;;;;;;;;;;;;;;;1.21;100.00;93742.50;1068548;55;20176;-84
2020/12/18 00:02:38;;;;;;;;;;;;;;;1.18;100.00;93743.19;1066490;55;20173;-82
2020/12/18 00:03:38;;;;;;;;;;;;;;;1.12;100.00;93741.91;1064103;55;21126;-82
2020/12/18 00:04:39;;;;;;;;;;;;;;;1.17;100.00;93733.00;1066518;55;20240;-84
2020/12/18 00:05:40;;;;;;;;;;;;;;;1.21;100.00;93741.75;1066438;55;20173;-84
2020/12/18 00:06:40;;;;;;;;;;;;;;;1.17;100.00;93736.41;1062127;55;20162;-82
2020/12/18 00:07:42;;;;;;;;;;;;;;;1.08;100.00;93738.44;1066323;55;20162;-84
2020/12/18 00:08:42;;;;;;;;;;;;;;;1.03;100.00;93740.56;1068622;55;20157;-85
2020/12/18 00:09:43;;;;;;;;;;;;;;;1.00;100.00;93739.38;1066449;55;20153;-83
2020/12/18 00:10:44;;;;;;;;;;;;;;;1.02;100.00;93733.78;1066364;55;20636;-84
2020/12/18 00:11:45;;;;;;;;;;;;;;;1.00;100.00;93732.22;1066486;55;20213;-83
2020/12/18 00:12:45;;;;;;;;;;;;;;;1.00;100.00;93739.38;1066410;55;20166;-84
2020/12/18 00:13:46;;;;;;;;;;;;;;;0.98;100.00;93737.09;1066456;55;20203;-84
2020/12/18 00:14:47;;;;;;;;;;;;;;;0.98;100.00;93736.31;1070817;55;20180;-83
2020/12/18 00:15:47;;;;;;;;;;;;;;;0.97;100.00;93737.44;1066537;55;20961;-85
2020/12/18 00:16:49;;;;;;;;;;;;;;;1.00;100.00;93734.09;1066489;55;20183;-83
2020/12/18 00:17:50;;;;;;;;;;;;;;;0.95;100.00;93724.59;1066340;55;20146;-85
2020/12/18 00:18:50;;;;;;;;;;;;;;;0.95;100.00;93729.09;1064329;55;20166;-84
2020/12/18 00:19:51;;;;;;;;;;;;;;;0.99;100.00;93725.44;1064269;55;20162;-84
2020/12/18 00:20:52;;;;;;;;;;;;;;;1.01;100.00;93730.38;1064197;55;20162;-85
2020/12/18 00:21:56;;;;;;;;;;;;;;;0.96;100.00;93739.28;1064347;55;20600;-84
2020/12/18 00:22:57;;;;;;;;;;;;;;;1.03;100.00;93732.66;1064405;55;20214;-84
2020/12/18 00:23:57;;;;;;;;;;;;;;;0.97;100.00;93730.31;1064314;55;20170;-84
2020/12/18 00:24:58;;;;;;;;;;;;;;;1.06;100.00;93729.38;1064430;55;20169;-83
2020/12/18 00:25:59;;;;;;;;;;;;;;;0.95;100.00;93732.50;1064330;55;20618;-83
2020/12/18 00:26:59;;;;;;;;;;;;;;;0.97;100.00;93735.56;1066395;55;20180;-84
2020/12/18 00:28:00;;;;;;;;;;;;;;;0.89;100.00;93725.97;1064197;55;20154;-84
2020/12/18 00:29:00;;;;;;;;;;;;;;;0.90;100.00;93724.84;1064217;55;20162;-84
2020/12/18 00:30:01;;;;;;;;;;;;;;;0.90;100.00;93727.47;1068495;55;20179;-84
2020/12/18 00:31:01;;;;;;;;;;;;;;;0.83;100.00;93737.06;1068473;55;20160;-83
2020/12/18 00:32:05;;;;;;;;;;;;;;;0.78;100.00;93727.56;1066437;55;20154;-82
2020/12/18 00:33:06;;;;;;;;;;;;;;;0.73;100.00;93725.19;1068553;55;20188;-83
2020/12/18 00:34:07;;;;;;;;;;;;;;;0.73;100.00;93739.09;1068706;55;20758;-84
2020/12/18 00:35:09;;;;;;;;;;;;;;;0.65;100.00;93732.12;1070861;55;20169;-84
2020/12/18 00:36:10;;;;;;;;;;;;;;;0.65;100.00;93742.63;1070612;55;20188;-84
2020/12/18 00:37:11;;;;;;;;;;;;;;;0.64;100.00;93733.22;1066293;55;20264;-84
2020/12/18 00:38:13;;;;;;;;;;;;;;;0.64;100.00;93732.47;1068558;55;20161;-84
2020/12/18 00:39:13;;;;;;;;;;;;;;;0.62;100.00;93735.44;1068518;55;21102;-86
2020/12/18 00:40:14;;;;;;;;;;;;;;;0.53;100.00;93740.09;1066236;55;20219;-83
2020/12/18 00:41:15;;;;;;;;;;;;;;;0.58;100.00;93745.09;1068481;55;20641;-81
2020/12/18 00:42:16;;;;;;;;;;;;;;;0.52;100.00;93735.91;1068419;55;20188;-83
2020/12/18 00:43:16;;;;;;;;;;;;;;;0.53;100.00;93737.47;1068478;55;20558;-81
2020/12/18 00:44:17;;;;;;;;;;;;;;;0.54;100.00;93740.84;1064307;55;20165;-83
2020/12/18 00:45:17;;;;;;;;;;;;;;;0.55;100.00;93743.13;1066400;55;20154;-84
2020/12/18 00:46:18;;;;;;;;;;;;;;;0.55;100.00;93735.25;1066297;55;20210;-82
2020/12/18 00:47:20;;;;;;;;;;;;;;;0.52;100.00;93738.53;1070673;55;20164;-84
2020/12/18 00:48:21;;;;;;;;;;;;;;;0.53;100.00;93732.22;1066440;55;20180;-84
2020/12/18 00:49:22;;;;;;;;;;;;;;;0.48;100.00;93732.44;1066285;55;20161;-87
2020/12/18 00:50:22;;;;;;;;;;;;;;;0.56;100.00;93728.13;1068459;55;20169;-84
2020/12/18 00:51:24;;;;;;;;;;;;;;;0.60;100.00;93732.38;1070613;55;20187;-83
2020/12/18 00:52:25;;;;;;;;;;;;;;;0.55;100.00;93731.84;1068524;55;20153;-85
2020/12/18 00:53:25;;;;;;;;;;;;;;;0.58;100.00;93739.84;1068431;55;20153;-84
2020/12/18 00:54:26;;;;;;;;;;;;;;;0.61;100.00;93731.25;1068331;55;20691;-83
2020/12/18 00:55:26;;;;;;;;;;;;;;;0.59;100.00;93732.72;1068597;55;20176;-83
2020/12/18 00:56:27;;;;;;;;;;;;;;;0.67;100.00;93744.94;1064241;55;20157;-84
2020/12/18 00:57:28;;;;;;;;;;;;;;;0.64;100.00;93738.50;1066561;55;20176;-83
2020/12/18 00:58:28;;;;;;;;;;;;;;;0.64;100.00;93740.34;1066530;55;20180;-84
2020/12/18 00:59:29;;;;;;;;;;;;;;;0.69;100.00;93743.50;1066236;55;20197;-85
2020/12/18 01:00:29;;;;;;;;;;;;;;;0.66;100.00;93738.94;1068567;55;20165;-84
2020/12/18 01:01:30;;;;;;;;;;;;;;;0.67;100.00;93737.06;1070523;55;20168;-83
2020/12/18 01:02:30;;;;;;;;;;;;;;;0.57;100.00;93740.16;1068409;55;20184;-84
2020/12/18 01:03:31;;;;;;;;;;;;;;;0.56;100.00;93738.63;1068408;55;20211;-83
2020/12/18 01:04:31;;;;;;;;;;;;;;;0.48;100.00;93738.47;1068543;55;20176;-82
2020/12/18 01:05:32;;;;;;;;;;;;;;;0.49;100.00;93747.12;1068408;55;20626;-83
2020/12/18 01:06:32;;;;;;;;;;;;;;;0.47;100.00;93738.78;1064235;55;20181;-83
2020/12/18 01:07:33;;;;;;;;;;;;;;;0.52;100.00;93745.66;1065943;55;20153;-86
2020/12/18 01:08:34;;;;;;;;;;;;;;;0.60;100.00;93742.13;1068467;55;20157;-84
2020/12/18 01:09:34;;;;;;;;;;;;;;;0.57;100.00;93742.78;1066241;55;20154;-84
2020/12/18 01:10:35;;;;;;;;;;;;;;;0.52;100.00;93749.06;1066263;55;20157;-83
2020/12/18 01:11:38;;;;;;;;;;;;;;;0.48;100.00;93737.69;1070647;55;20721;-85
2020/12/18 01:12:39;;;;;;;;;;;;;;;0.43;100.00;93743.19;1070216;55;20161;-84
2020/12/18 01:13:40;;;;;;;;;;;;;;;0.41;100.00;93740.91;1070693;55;20180;-83
2020/12/18 01:14:40;;;;;;;;;;;;;;;0.38;100.00;93741.56;1070514;55;20252;-84
2020/12/18 01:15:41;;;;;;;;;;;;;;;0.42;100.00;93744.28;1070664;55;20246;-83
2020/12/18 01:16:41;;;;;;;;;;;;;;;0.42;100.00;93747.69;1070682;55;20188;-83
2020/12/18 01:17:42;;;;;;;;;;;;;;;0.53;100.00;93750.63;1070725;55;20160;-84
2020/12/18 01:18:43;;;;;;;;;;;;;;;0.64;100.00;93745.63;1066355;55;20583;-83
2020/12/18 01:19:43;;;;;;;;;;;;;;;0.59;100.00;93743.25;1066244;55;20161;-84
2020/12/18 01:20:44;;;;;;;;;;;;;;;0.60;100.00;93740.25;1066274;55;20172;-84
2020/12/18 01:21:45;;;;;;;;;;;;;;;0.55;100.00;93740.50;1068457;55;20189;-84
2020/12/18 01:22:45;;;;;;;;;;;;;;;0.52;100.00;93741.16;1068559;55;20644;-84
2020/12/18 01:23:46;;;;;;;;;;;;;;;0.53;100.00;93742.72;1066451;55;20293;-83
2020/12/18 01:24:46;;;;;;;;;;;;;;;0.51;100.00;93742.28;1066351;55;20575;-83
2020/12/18 01:25:47;;;;;;;;;;;;;;;0.48;100.00;93743.75;1068596;55;20171;-84
2020/12/18 01:26:48;;;;;;;;;;;;;;;0.44;100.00;93742.09;1068514;55;20197;-84
2020/12/18 01:27:48;;;;;;;;;;;;;;;0.47;100.00;93747.44;1068712;55;20169;-83
2020/12/18 01:28:49;;;;;;;;;;;;;;;0.38;100.00;93746.81;1070561;55;20160;-84
2020/12/18 01:29:51;;;;;;;;;;;;;;;0.42;100.00;93745.06;1068656;55;20192;-83
2020/12/18 01:30:52;;;;;;;;;;;;;;;0.42;100.00;93745.06;1068732;55;20666;-84
2020/12/18 01:31:55;;;;;;;;;;;;;;;0.55;100.00;93745.78;1066336;55;20192;-84
2020/12/18 01:32:56;;;;;;;;;;;;;;;0.58;100.00;93745.09;1066344;55;20598;-83
2020/12/18 01:33:56;;;;;;;;;;;;;;;0.70;100.00;93746.88;1066277;55;20169;-83
2020/12/18 01:34:57;;;;;;;;;;;;;;;0.73;100.00;93748.84;1068576;55;20259;-83
2020/12/18 01:35:59;;;;;;;;;;;;;;;0.79;100.00;93744.09;1068437;55;20161;-84
2020/12/18 01:37:00;;;;;;;;;;;;;;;0.81;100.00;93753.19;1068596;55;20176;-84
2020/12/18 01:38:01;;;;;;;;;;;;;;;0.78;100.00;93751.22;1069614;55;20167;-84
2020/12/18 01:39:03;;;;;;;;;;;;;;;0.87;100.00;93757.09;1066303;55;20188;-84
2020/12/18 01:40:04;;;;;;;;;;;;;;;0.81;100.00;93758.47;1066417;55;20176;-83
2020/12/18 01:41:04;;;;;;;;;;;;;;;0.79;100.00;93747.53;1066202;55;20582;-84
2020/12/18 01:42:05;;;;;;;;;;;;;;;0.84;100.00;93754.41;1064103;55;20162;-84
2020/12/18 01:43:06;;;;;;;;;;;;;;;0.75;100.00;93750.06;1064266;55;20173;-84
2020/12/18 01:44:07;;;;;;;;;;;;;;;0.69;100.00;93748.75;1064315;55;20169;-84
2020/12/18 01:45:07;;;;;;;;;;;;;;;0.70;100.00;93754.78;1062075;56;20610;-84
2020/12/18 01:46:11;;;;;;;;;;;;;;;0.67;100.00;93748.34;1064363;55;20162;-84
2020/12/18 01:47:31;;;;;;;;;;;;;;;0.74;100.00;93753.00;1064101;55;20185;-84
2020/12/18 01:48:32;;;;;;;;;;;;;;;0.82;100.00;93753.97;1065513;55;20255;-83
2020/12/18 01:49:33;;;;;;;;;;;;;;;0.91;100.00;93750.06;1068394;55;20671;-84
2020/12/18 01:50:34;;;;;;;;;;;;;;;0.88;100.00;93749.97;1066525;55;20189;-84
2020/12/18 01:51:35;;;;;;;;;;;;;;;0.87;100.00;93753.72;1066256;55;20153;-83
2020/12/18 01:52:36;;;;;;;;;;;;;;;0.89;100.00;93751.53;1066260;55;20157;-83
2020/12/18 01:53:38;;;;;;;;;;;;;;;0.84;100.00;93744.63;1066415;55;20220;-83
2020/12/18 01:54:38;;;;;;;;;;;;;;;0.89;100.00;93741.75;1064198;55;20189;-83
2020/12/18 01:55:39;;;;;;;;;;;;;;;0.89;100.00;93754.16;1062354;55;20150;-85
2020/12/18 01:56:40;;;;;;;;;;;;;;;0.90;100.00;93750.41;1066319;55;20244;-84
2020/12/18 01:57:43;;;;;;;;;;;;;;;0.91;100.00;93755.31;1068542;55;20192;-84
2020/12/18 01:58:43;;;;;;;;;;;;;;;0.97;100.00;93747.97;1066378;55;20622;-84
2020/12/18 01:59:44;;;;;;;;;;;;;;;1.05;100.00;93743.63;1068354;55;20157;-84
2020/12/18 02:00:47;;;;;;;;;;;;;;;0.99;100.00;93748.38;1066246;55;20150;-84
2020/12/18 02:01:48;;;;;;;;;;;;;;;1.05;100.00;93743.63;1066325;55;20161;-84
2020/12/18 02:02:50;;;;;;;;;;;;;;;1.07;100.00;93746.69;1066893;55;20180;-84
2020/12/18 02:03:53;;;;;;;;;;;;;;;1.18;100.00;93742.41;1068535;55;20192;-84
2020/12/18 02:04:54;;;;;;;;;;;;;;;1.22;100.00;93738.00;1066228;55;20228;-84
2020/12/18 02:05:55;;;;;;;;;;;;;;;1.20;100.00;93734.97;1062078;56;20157;-83
2020/12/18 02:06:57;;;;;;;;;;;;;;;1.14;100.00;93737.09;1064904;55;20674;-84
2020/12/18 02:08:02;;;;;;;;;;;;;;;1.17;100.00;93744.28;1068305;55;20176;-84
2020/12/18 02:09:03;;;;;;;;;;;;;;;1.18;100.00;93737.91;1066587;55;20157;-84
2020/12/18 02:10:05;;;;;;;;;;;;;;;1.07;100.00;93744.81;1066130;55;20245;-84
2020/12/18 02:11:05;;;;;;;;;;;;;;;1.06;100.00;93740.66;1062957;56;20162;-83
2020/12/18 02:12:06;;;;;;;;;;;;;;;1.18;100.00;93737.16;1061917;56;20722;-83
2020/12/18 02:13:07;;;;;;;;;;;;;;;1.19;100.00;93741.34;1066428;55;20161;-84
2020/12/18 02:14:11;;;;;;;;;;;;;;;1.11;100.00;93740.41;1068453;55;20186;-85
2020/12/18 02:15:11;;;;;;;;;;;;;;;1.09;100.00;93737.31;1068614;55;20187;-82
2020/12/18 02:16:12;;;;;;;;;;;;;;;1.11;100.00;93732.50;1066038;55;20258;-85
2020/12/18 02:17:13;;;;;;;;;;;;;;;1.10;100.00;93738.09;1066333;55;20165;-83
2020/12/18 02:18:13;;;;;;;;;;;;;;;1.10;100.00;93741.50;1068476;55;20184;-85
2020/12/18 02:19:17;;;;;;;;;;;;;;;1.06;100.00;93735.41;1066170;55;20665;-84
2020/12/18 02:20:18;;;;;;;;;;;;;;;1.10;100.00;93732.81;1066542;55;20165;-83
2020/12/18 02:21:18;;;;;;;;;;;;;;;1.12;100.00;93744.56;1066177;55;21028;-84
2020/12/18 02:22:23;;;;;;;;;;;;;;;1.11;100.00;93734.38;1066353;55;20177;-83
2020/12/18 02:23:24;;;;;;;;;;;;;;;1.19;100.00;93741.34;1066057;55;20185;-84
2020/12/18 02:24:25;;;;;;;;;;;;;;;1.16;100.00;93744.66;1064221;55;20162;-83
2020/12/18 02:25:29;;;;;;;;;;;;;;;1.14;100.00;93734.47;1062483;55;22258;-83
2020/12/18 02:26:29;;;;;;;;;;;;;;;1.10;100.00;93728.34;1064395;55;20197;-83
2020/12/18 02:27:30;;;;;;;;;;;;;;;1.18;100.00;93726.63;1064169;55;20164;-83
2020/12/18 02:28:30;;;;;;;;;;;;;;;1.17;100.00;93725.88;1064102;56;20169;-83
2020/12/18 02:29:32;;;;;;;;;;;;;;;1.18;100.00;93730.03;1066331;55;20185;-84
2020/12/18 02:30:32;;;;;;;;;;;;;;;1.18;100.00;93727.38;1068041;55;20184;-84
2020/12/18 02:31:33;;;;;;;;;;;;;;;1.18;100.00;93726.63;1068584;55;20153;-84
2020/12/18 02:32:34;;;;;;;;;;;;;;;1.17;100.00;93725.88;1066123;55;20233;-84
2020/12/18 02:33:35;;;;;;;;;;;;;;;1.18;100.00;93724.75;1064151;55;20165;-83
2020/12/18 02:34:37;;;;;;;;;;;;;;;1.17;100.00;93733.00;1068545;55;20177;-85
2020/12/18 02:35:38;;;;;;;;;;;;;;;1.18;100.00;93730.03;1068357;55;20145;-85
2020/12/18 02:36:39;;;;;;;;;;;;;;;1.18;100.00;93740.56;1068316;55;20224;-84
2020/12/18 02:37:40;;;;;;;;;;;;;;;1.20;100.00;93727.81;1066345;55;20665;-82
2020/12/18 02:38:40;;;;;;;;;;;;;;;1.37;100.00;93731.22;1068343;55;20629;-84
2020/12/18 02:39:42;;;;;;;;;;;;;;;1.42;100.00;93726.44;1066248;55;20249;-84
2020/12/18 02:40:43;;;;;;;;;;;;;;;1.35;100.00;93730.78;1064136;55;20166;-83
2020/12/18 02:41:44;;;;;;;;;;;;;;;1.36;100.00;93727.81;1064181;55;20161;-85
2020/12/18 02:42:48;;;;;;;;;;;;;;;1.33;100.00;93728.50;1066378;55;20184;-84
2020/12/18 02:43:49;;;;;;;;;;;;;;;1.31;100.00;93722.03;1064353;55;20161;-83
2020/12/18 02:44:50;;;;;;;;;;;;;;;1.37;100.00;93728.59;1066326;55;20169;-85
2020/12/18 02:45:51;;;;;;;;;;;;;;;1.41;100.00;93732.81;1068486;55;20153;-82
2020/12/18 02:46:51;;;;;;;;;;;;;;;1.51;100.00;93726.25;1066257;55;20259;-85
2020/12/18 02:47:52;;;;;;;;;;;;;;;1.56;100.00;93722.59;1066354;55;20262;-84
2020/12/18 02:48:53;;;;;;;;;;;;;;;1.46;100.00;93726.53;1064099;55;20177;-83
2020/12/18 02:49:54;;;;;;;;;;;;;;;1.47;100.00;93723.53;1064059;55;20236;-83
2020/12/18 02:50:54;;;;;;;;;;;;;;;1.51;100.00;93715.72;1066211;55;20185;-84
2020/12/18 02:51:55;;;;;;;;;;;;;;;1.43;100.00;93719.31;1068430;55;20153;-86
2020/12/18 02:52:56;;;;;;;;;;;;;;;1.39;100.00;93723.72;1070590;55;20198;-84
2020/12/18 02:53:57;;;;;;;;;;;;;;;1.44;100.00;93723.47;1068414;55;20188;-86
2020/12/18 02:54:57;;;;;;;;;;;;;;;1.46;100.00;93727.28;1066313;55;20176;-83
2020/12/18 02:55:59;;;;;;;;;;;;;;;1.48;100.00;93717.16;1066330;55;20303;-84
2020/12/18 02:56:59;;;;;;;;;;;;;;;1.45;100.00;93720.50;1068410;55;20188;-84
2020/12/18 02:58:00;;;;;;;;;;;;;;;1.42;100.00;93723.06;1066196;55;20672;-84
2020/12/18 02:59:01;;;;;;;;;;;;;;;1.39;100.00;93718.47;1064118;55;20169;-85
2020/12/18 03:00:04;;;;;;;;;;;;;;;1.35;100.00;93723.62;1066155;55;20649;-85
2020/12/18 03:01:04;;;;;;;;;;;;;;;1.29;100.00;93719.75;1065985;55;20185;-85
2020/12/18 03:02:06;;;;;;;;;;;;;;;1.30;100.00;93717.88;1068528;55;20168;-85
2020/12/18 03:03:07;;;;;;;;;;;;;;;1.42;100.00;93721.19;1066279;55;20188;-84
2020/12/18 03:04:08;;;;;;;;;;;;;;;1.40;100.00;93719.97;1066132;55;20196;-84
2020/12/18 03:05:09;;;;;;;;;;;;;;;1.41;100.00;93722.28;1066290;55;20192;-84
2020/12/18 03:06:09;;;;;;;;;;;;;;;1.42;100.00;93723.06;1066215;55;20665;-83
2020/12/18 03:07:10;;;;;;;;;;;;;;;1.37;100.00;93725.94;1068329;55;20191;-84
2020/12/18 03:08:10;;;;;;;;;;;;;;;1.36;100.00;93722.56;1070365;55;20173;-82
2020/12/18 03:09:11;;;;;;;;;;;;;;;1.40;100.00;93718.09;1068511;55;20165;-85
2020/12/18 03:10:13;;;;;;;;;;;;;;;1.50;100.00;93719.47;1068474;55;21047;-85
2020/12/18 03:11:14;;;;;;;;;;;;;;;1.50;100.00;93720.22;1068323;55;20169;-84
2020/12/18 03:12:15;;;;;;;;;;;;;;;1.38;100.00;93724.84;1066245;55;20181;-83
2020/12/18 03:13:15;;;;;;;;;;;;;;;1.43;100.00;93724.56;1068181;55;20149;-84
2020/12/18 03:14:16;;;;;;;;;;;;;;;1.41;100.00;93729.44;1068572;55;20689;-83
2020/12/18 03:15:19;;;;;;;;;;;;;;;1.38;100.00;93715.06;1066399;55;20169;-84
2020/12/18 03:16:19;;;;;;;;;;;;;;;1.40;100.00;93718.09;1064111;55;20189;-84
2020/12/18 03:17:22;;;;;;;;;;;;;;;1.51;100.00;93715.72;1064048;55;20218;-82
2020/12/18 03:18:23;;;;;;;;;;;;;;;1.46;100.00;93714.13;1063913;56;20180;-84
2020/12/18 03:19:23;;;;;;;;;;;;;;;1.45;100.00;93719.75;1066057;55;20165;-84
2020/12/18 03:20:24;;;;;;;;;;;;;;;1.42;100.00;93720.41;1068183;55;20697;-84
2020/12/18 03:21:24;;;;;;;;;;;;;;;1.45;100.00;93720.50;1068272;55;20157;-84
2020/12/18 03:22:25;;;;;;;;;;;;;;;1.41;100.00;93722.28;1068271;55;20242;-83
2020/12/18 03:23:26;;;;;;;;;;;;;;;1.41;100.00;93722.28;1066197;55;20237;-84
2020/12/18 03:24:27;;;;;;;;;;;;;;;1.35;100.00;93720.25;1064099;56;20185;-83
2020/12/18 03:25:28;;;;;;;;;;;;;;;1.26;100.00;93717.78;1066137;55;20205;-84
2020/12/18 03:26:29;;;;;;;;;;;;;;;1.23;100.00;93711.34;1066277;55;20177;-84
2020/12/18 03:27:31;;;;;;;;;;;;;;;1.20;100.00;93716.53;1062009;55;20158;-83
2020/12/18 03:28:32;;;;;;;;;;;;;;;1.16;100.00;93715.69;1064034;55;20275;-84
2020/12/18 03:29:32;;;;;;;;;;;;;;;1.19;100.00;93715.00;1068109;55;20618;-84
2020/12/18 03:30:33;;;;;;;;;;;;;;;1.14;100.00;93713.41;1066192;55;20180;-83
2020/12/18 03:31:34;;;;;;;;;;;;;;;1.12;100.00;93717.47;1061761;56;20154;-82
2020/12/18 03:32:34;;;;;;;;;;;;;;;1.08;100.00;93709.47;1063926;56;20158;-83
2020/12/18 03:33:35;;;;;;;;;;;;;;;1.13;100.00;93713.72;1063848;56;20271;-84
2020/12/18 03:34:35;;;;;;;;;;;;;;;1.12;100.00;93714.84;1066156;55;20161;-85
2020/12/18 03:35:37;;;;;;;;;;;;;;;1.12;100.00;93714.84;1068452;55;20169;-83
2020/12/18 03:36:37;;;;;;;;;;;;;;;1.12;100.00;93720.09;1068315;55;20177;-86
2020/12/18 03:37:38;;;;;;;;;;;;;;;1.12;100.00;93712.19;1066250;55;20673;-84
2020/12/18 03:38:38;;;;;;;;;;;;;;;1.18;100.00;93719.50;1065952;55;20161;-84
2020/12/18 03:39:39;;;;;;;;;;;;;;;1.18;100.00;93718.72;1063830;56;20215;-83
2020/12/18 03:40:39;;;;;;;;;;;;;;;1.12;100.00;93715.59;1061849;56;20181;-84
2020/12/18 03:41:40;;;;;;;;;;;;;;;1.08;100.00;93712.13;1063822;55;20153;-83
2020/12/18 03:42:40;;;;;;;;;;;;;;;1.12;100.00;93718.22;1066423;55;20153;-83
2020/12/18 03:43:41;;;;;;;;;;;;;;;1.10;100.00;93723.09;1066742;55;20176;-83
2020/12/18 03:44:42;;;;;;;;;;;;;;;1.19;100.00;93728.19;1066526;55;20157;-83
2020/12/18 03:45:42;;;;;;;;;;;;;;;1.16;100.00;93728.84;1066449;55;21108;-85
2020/12/18 03:46:43;;;;;;;;;;;;;;;1.17;100.00;93714.56;1066716;55;20157;-85
2020/12/18 03:47:43;;;;;;;;;;;;;;;1.20;100.00;93730.47;1070811;55;20152;-85
2020/12/18 03:48:46;;;;;;;;;;;;;;;1.28;100.00;93718.22;1068618;55;20689;-83
2020/12/18 03:49:47;;;;;;;;;;;;;;;1.40;100.00;93722.59;1064423;55;21257;-83
2020/12/18 03:50:47;;;;;;;;;;;;;;;1.35;100.00;93728.91;1062317;55;20193;-86
2020/12/18 03:51:48;;;;;;;;;;;;;;;1.31;100.00;93719.41;1066582;55;21110;-84
2020/12/18 03:52:48;;;;;;;;;;;;;;;1.28;100.00;93728.00;1068670;55;20173;-84
2020/12/18 03:53:49;;;;;;;;;;;;;;;1.29;100.00;93719.00;1064258;55;20204;-84
2020/12/18 03:54:50;;;;;;;;;;;;;;;1.22;100.00;93727.47;1064305;55;20149;-84
2020/12/18 03:55:50;;;;;;;;;;;;;;;1.23;100.00;93727.16;1062116;56;20162;-84
2020/12/18 03:56:51;;;;;;;;;;;;;;;1.25;100.00;93732.06;1062588;55;20185;-84
2020/12/18 03:57:53;;;;;;;;;;;;;;;1.48;100.00;93719.03;1064375;55;20185;-84
2020/12/18 03:58:53;;;;;;;;;;;;;;;1.40;100.00;93717.34;1064350;55;20161;-84
2020/12/18 03:59:54;;;;;;;;;;;;;;;1.50;100.00;93714.97;1066578;55;20637;-85
2020/12/18 04:00:54;;;;;;;;;;;;;;;1.54;100.00;93715.03;1068587;55;20157;-83
2020/12/18 04:01:55;;;;;;;;;;;;;;;1.54;100.00;93714.25;1064352;55;20671;-84
2020/12/18 04:02:55;;;;;;;;;;;;;;;1.53;100.00;93710.88;1066545;55;20245;-82
2020/12/18 04:03:56;;;;;;;;;;;;;;;1.55;100.00;93713.94;1068650;55;20184;-84
2020/12/18 04:04:56;;;;;;;;;;;;;;;1.51;100.00;93711.22;1064253;55;20170;-85
2020/12/18 04:05:57;;;;;;;;;;;;;;;1.63;100.00;93715.63;1064206;55;20229;-84
2020/12/18 04:06:57;;;;;;;;;;;;;;;1.67;100.00;93710.44;1064503;55;20157;-84
2020/12/18 04:07:58;;;;;;;;;;;;;;;1.62;100.00;93716.69;1062063;56;20176;-84
2020/12/18 04:08:58;;;;;;;;;;;;;;;1.56;100.00;93706.78;1064264;55;20173;-83
2020/12/18 04:10:00;;;;;;;;;;;;;;;1.54;100.00;93719.53;1068674;55;20191;-83
2020/12/18 04:11:00;;;;;;;;;;;;;;;1.52;100.00;93711.97;1066470;55;20153;-84
2020/12/18 04:12:01;;;;;;;;;;;;;;;1.49;100.00;93707.38;1066387;55;20192;-84
2020/12/18 04:13:01;;;;;;;;;;;;;;;1.44;100.00;93703.16;1066267;55;20247;-83
2020/12/18 04:14:02;;;;;;;;;;;;;;;1.59;100.00;93706.88;1061966;56;20600;-83
2020/12/18 04:15:03;;;;;;;;;;;;;;;1.63;100.00;93707.72;1064198;55;20177;-84
2020/12/18 04:16:03;;;;;;;;;;;;;;;1.57;100.00;93701.16;1064150;55;20166;-84
2020/12/18 04:17:04;;;;;;;;;;;;;;;1.57;100.00;93705.69;1063963;55;20219;-83
2020/12/18 04:18:04;;;;;;;;;;;;;;;1.66;100.00;93704.38;1064045;55;20193;-84
2020/12/18 04:19:07;;;;;;;;;;;;;;;1.62;100.00;93710.66;1064372;55;20271;-86
2020/12/18 04:20:11;;;;;;;;;;;;;;;1.58;100.00;93713.25;1064316;55;20188;-84
2020/12/18 04:21:12;;;;;;;;;;;;;;;1.56;100.00;93710.19;1064060;55;20154;-84
2020/12/18 04:22:12;;;;;;;;;;;;;;;1.58;100.00;93709.81;1062101;56;20150;-83
2020/12/18 04:23:13;;;;;;;;;;;;;;;1.63;100.00;93712.22;1066359;55;20252;-83
2020/12/18 04:24:16;;;;;;;;;;;;;;;1.65;100.00;93704.72;1064411;55;20178;-84
2020/12/18 04:25:17;;;;;;;;;;;;;;;1.74;100.00;93702.66;1066366;55;20188;-85
2020/12/18 04:26:17;;;;;;;;;;;;;;;1.68;100.00;93701.41;1064310;55;20158;-85
2020/12/18 04:27:18;;;;;;;;;;;;;;;1.73;100.00;93709.81;1064303;55;20197;-83
2020/12/18 04:28:19;;;;;;;;;;;;;;;1.82;100.00;93704.34;1066360;55;20158;-84
2020/12/18 04:29:19;;;;;;;;;;;;;;;1.86;100.00;93704.41;1068491;55;20175;-85
2020/12/18 04:30:20;;;;;;;;;;;;;;;1.77;100.00;93710.63;1066337;55;20181;-84
2020/12/18 04:31:20;;;;;;;;;;;;;;;1.82;100.00;93706.22;1066516;55;20164;-84
2020/12/18 04:32:21;;;;;;;;;;;;;;;1.74;100.00;93702.66;1066429;55;20162;-83
2020/12/18 04:33:21;;;;;;;;;;;;;;;1.76;100.00;93697.81;1064096;55;20181;-83
2020/12/18 04:34:21;;;;;;;;;;;;;;;1.70;100.00;93699.94;1066351;55;20168;-84
2020/12/18 04:35:22;;;;;;;;;;;;;;;1.68;100.00;93696.13;1068419;55;20668;-84
2020/12/18 04:36:23;;;;;;;;;;;;;;;1.65;100.00;93702.84;1063981;55;20259;-84
2020/12/18 04:37:23;;;;;;;;;;;;;;;1.61;100.00;93695.97;1066496;55;20188;-84
2020/12/18 04:38:24;;;;;;;;;;;;;;;1.61;100.00;93698.63;1066266;55;20181;-83
2020/12/18 04:39:24;;;;;;;;;;;;;;;1.64;100.00;93696.06;1066117;55;20161;-84
2020/12/18 04:40:27;;;;;;;;;;;;;;;1.56;100.00;93688.34;1066229;55;20177;-82
2020/12/18 04:41:27;;;;;;;;;;;;;;;1.53;100.00;93695.06;1068457;55;20192;-82
2020/12/18 04:42:28;;;;;;;;;;;;;;;1.56;100.00;93701.53;1066299;55;21154;-83
2020/12/18 04:43:28;;;;;;;;;;;;;;;1.63;100.00;93709.59;1066435;55;20258;-84
2020/12/18 04:44:29;;;;;;;;;;;;;;;1.61;100.00;93696.75;1066418;55;20153;-84
2020/12/18 04:45:29;;;;;;;;;;;;;;;1.58;100.00;93702.72;1064068;55;20166;-83
2020/12/18 04:46:30;;;;;;;;;;;;;;;1.55;100.00;93700.75;1066392;55;20243;-83
2020/12/18 04:47:36;;;;;;;;;;;;;;;1.55;100.00;93702.63;1068641;55;21170;-83
2020/12/18 04:48:37;;;;;;;;;;;;;;;1.50;100.00;93704.44;1066256;55;20192;-84
2020/12/18 04:49:39;;;;;;;;;;;;;;;1.62;100.00;93710.66;1066354;55;21253;-84
2020/12/18 04:50:40;;;;;;;;;;;;;;;1.69;100.00;93702.94;1068355;55;20195;-84
2020/12/18 04:51:42;;;;;;;;;;;;;;;1.63;100.00;93705.06;1066229;55;20153;-83
2020/12/18 04:52:45;;;;;;;;;;;;;;;1.69;100.00;93705.56;1064052;55;20192;-84
2020/12/18 04:53:47;;;;;;;;;;;;;;;1.68;100.00;93701.41;1066014;55;20303;-83
2020/12/18 04:54:48;;;;;;;;;;;;;;;1.67;100.00;93697.25;1066310;55;20247;-83
2020/12/18 04:55:52;;;;;;;;;;;;;;;1.73;100.00;93694.00;1064233;55;20184;-83
2020/12/18 04:56:54;;;;;;;;;;;;;;;1.70;100.00;93696.53;1062133;55;20279;-82
2020/12/18 04:57:56;;;;;;;;;;;;;;;1.77;100.00;93705.37;1061874;55;20193;-83
2020/12/18 04:58:56;;;;;;;;;;;;;;;1.88;100.00;93704.81;1064307;55;20220;-83
2020/12/18 05:00:01;;;;;;;;;;;;;;;1.87;100.00;93711.19;1062062;56;20213;-84
2020/12/18 05:01:02;;;;;;;;;;;;;;;1.83;100.00;93708.50;1062142;55;20172;-83
2020/12/18 05:02:02;;;;;;;;;;;;;;;1.91;100.00;93707.53;1066240;55;20162;-83
2020/12/18 05:03:03;;;;;;;;;;;;;;;1.83;100.00;93700.59;1066172;55;20165;-83
2020/12/18 05:04:05;;;;;;;;;;;;;;;1.90;100.00;93711.28;1064040;55;20185;-83
2020/12/18 05:05:10;;;;;;;;;;;;;;;1.89;100.00;93709.75;1066475;55;20158;-84
2020/12/18 05:06:10;;;;;;;;;;;;;;;1.92;100.00;93701.12;1066440;55;20266;-84
2020/12/18 05:07:12;;;;;;;;;;;;;;;1.92;100.00;93703.03;1066297;55;20162;-84
2020/12/18 05:08:12;;;;;;;;;;;;;;;1.95;100.00;93705.72;1063628;55;20163;-84
2020/12/18 05:09:13;;;;;;;;;;;;;;;1.84;100.00;93707.38;1066520;55;20158;-83
2020/12/18 05:10:13;;;;;;;;;;;;;;;1.85;100.00;93705.53;1064129;55;21118;-84
2020/12/18 05:11:20;;;;;;;;;;;;;;;1.82;100.00;93706.97;1063970;55;20658;-82
2020/12/18 05:12:20;;;;;;;;;;;;;;;1.79;100.00;93705.00;1064378;55;20199;-85
2020/12/18 05:13:21;;;;;;;;;;;;;;;1.77;100.00;93710.63;1065999;55;20165;-83
2020/12/18 05:14:27;;;;;;;;;;;;;;;1.83;100.00;93708.50;1068482;55;20240;-83
2020/12/18 05:15:28;;;;;;;;;;;;;;;1.94;100.00;93704.22;1066372;55;20161;-83
2020/12/18 05:16:28;;;;;;;;;;;;;;;1.87;100.00;93713.84;1064211;55;20166;-85
2020/12/18 05:17:31;;;;;;;;;;;;;;;1.87;100.00;93708.56;1064271;55;20161;-83
2020/12/18 05:18:31;;;;;;;;;;;;;;;1.95;100.00;93705.72;1064195;55;20162;-84